Marshall Army Air Field
KFRI : rendu visible

Aérodrome :











RETROUVEZ-NOUS SUR...

 
LOGIN :

S'inscrire | Disclaimer

   EN    FR    IT 

 









Légende :    VFR   VFR Marginal   IFR   IFR Intensif   IFR Très Intensif
Visi : 
Plafond : 
>= 8 km
>= 3000ft
5 à 8 km
1000 à 3000 ft
1500m à 5 km
500 à 1000 ft
800 à 1500m
200 à 500 ft
< 800m
< 200 ft
Symboles :   Orages  Brouillard  Fortes neiges  Fortes précipitations  Vent > 20 kt






- Altitude de l'aérodrome : 1065 ft


KFRI - Marshall Army Air Field

DERNIER METAR :
  • 260356Z AUTO 35005KT 10SM -DZ OVC008 17/16 A2991 RMK AO2 DZB20E23RAB23E40DZB40 SLP122 P0000 T01700157 $

METARs EXPIRÉS :
  • 260320Z AUTO 36003KT 10SM -DZ OVC008 17/16 A2990 RMK AO2 DZB20 SLP119 $
  • 260256Z AUTO 35006KT 10SM OVC008 17/16 A2989 RMK AO2 RAE12DZB12E15 SLP116 P0000 60001 T01730160 52014 $
  • 260230Z AUTO 36006KT 10SM OVC008 17/16 A2987 RMK AO2 RAE12DZB12E15 OVC V BKN SLP109 $
  • 260215Z AUTO 35006KT 10SM BKN010 17/16 A2987 RMK AO2 RAE12DZB12E15 BKN V SCT SLP109 $
  • 260156Z AUTO 36007KT 10SM -RA BKN010 18/16 A2987 RMK AO2 RAE05DZB05E15RAB15E25DZB25E25DZB26E34DZB48E53RAB53 BKN V SCT SLP109 P0001 T01760161 $
  • 260134Z AUTO 34006KT 10SM FEW008 18/17 A2988 RMK AO2 RAE05DZB05E15RAB15E25DZB25E25DZB26E34 SLP112 $
  • 260126Z AUTO 32003KT 10SM -DZ FEW008 18/17 A2987 RMK AO2 RAE05DZB05E15RAB15E25DZB25E25DZB26 SLP109 $

Prévision TAF périmée.
FIR KZKC / Amérique du Nord



MET'MAP, la Météo Aéronautique d'un coup d'oeil ! - Copyright ORBIFLY Décembre 2007 - Disclaimer

ORBIFLY MET'MAP TEAM :

Programmation & Développement : Alexandra Zaïnal
Sur une idée originale de : Baudouin d'Aumeries
Assistance à la programmation : Marc-Olivier Méhu
Soutien technique & logistique : Manuel Goepfert

Contact : metmap@orbifly.com




SOURCES & CREDITS :

   NOAA       Earth
Advisory